Time;durP1;ratioP1;P1;durP2;ratioP2;P2;SDS_P1;SDS_P2;PMS_P1;PMS_P2;Temp;Humidity;BMP_temperature;BMP_pressure;BME280_temperature;BME280_humidity;BME280_pressure;Samples;Min_cycle;Max_cycle;Signal;HPM_P1;HPM_P2
2021/04/05 00:02:17;;;;;;;39.67;22.55;;;;;;;;;;5116085;28;20722;-67
2021/04/05 00:04:44;;;;;;;43.38;24.60;;;;;;;;;;5115743;28;20243;-66
2021/04/05 00:07:11;;;;;;;31.35;21.33;;;;;;;;;;5115431;28;20279;-67
2021/04/05 00:09:39;;;;;;;35.17;21.77;;;;;;;;;;5116063;28;20264;-67
2021/04/05 00:12:06;;;;;;;32.20;22.05;;;;;;;;;;5115889;28;20200;-67
2021/04/05 00:14:33;;;;;;;30.30;21.08;;;;;;;;;;5116169;28;20283;-67
2021/04/05 00:17:00;;;;;;;32.92;21.52;;;;;;;;;;5115724;28;20638;-67
2021/04/05 00:19:27;;;;;;;36.08;23.60;;;;;;;;;;5115764;28;20280;-67
2021/04/05 00:21:54;;;;;;;31.17;21.63;;;;;;;;;;5115359;28;20229;-67
2021/04/05 00:24:21;;;;;;;29.23;20.00;;;;;;;;;;5116097;28;20280;-68
2021/04/05 00:26:48;;;;;;;35.08;22.45;;;;;;;;;;5115568;28;20228;-67
2021/04/05 00:29:15;;;;;;;33.28;22.10;;;;;;;;;;5115988;28;20237;-67
2021/04/05 00:31:42;;;;;;;25.27;17.08;;;;;;;;;;5115523;28;20294;-67
2021/04/05 00:34:08;;;;;;;34.97;18.88;;;;;;;;;;5115146;28;20240;-67
2021/04/05 00:36:35;;;;;;;35.15;20.75;;;;;;;;;;5115321;28;20283;-67
2021/04/05 00:39:02;;;;;;;32.67;19.67;;;;;;;;;;5114910;28;20662;-67
2021/04/05 00:41:30;;;;;;;30.42;19.25;;;;;;;;;;5115421;28;20236;-67
2021/04/05 00:43:57;;;;;;;29.05;19.30;;;;;;;;;;5115242;28;20280;-67
2021/04/05 00:46:24;;;;;;;27.92;17.95;;;;;;;;;;5115192;28;20248;-67
2021/04/05 00:48:51;;;;;;;34.83;20.67;;;;;;;;;;5115150;28;20232;-67
2021/04/05 00:51:19;;;;;;;31.35;18.33;;;;;;;;;;5115077;28;20224;-67
2021/04/05 00:53:47;;;;;;;32.65;19.58;;;;;;;;;;5114758;28;20745;-67
2021/04/05 00:56:14;;;;;;;25.60;16.95;;;;;;;;;;5114669;28;20285;-66
2021/04/05 00:58:42;;;;;;;31.15;18.48;;;;;;;;;;5114912;28;20309;-66
2021/04/05 01:01:09;;;;;;;30.48;19.27;;;;;;;;;;5115111;28;20281;-67
2021/04/05 01:03:37;;;;;;;23.45;13.75;;;;;;;;;;5115047;28;20201;-67
2021/04/05 01:06:05;;;;;;;35.83;17.80;;;;;;;;;;5114473;28;20280;-66
2021/04/05 01:08:32;;;;;;;34.20;18.33;;;;;;;;;;5114736;28;20263;-67
2021/04/05 01:10:59;;;;;;;29.27;17.88;;;;;;;;;;5114970;28;20231;-67
2021/04/05 01:13:26;;;;;;;29.05;16.40;;;;;;;;;;5114940;28;20299;-67
2021/04/05 01:15:53;;;;;;;28.55;17.85;;;;;;;;;;5114665;28;20524;-67
2021/04/05 01:18:20;;;;;;;28.10;18.60;;;;;;;;;;5114231;28;20213;-67
2021/04/05 01:20:47;;;;;;;29.67;18.40;;;;;;;;;;5114504;28;20219;-67
2021/04/05 01:23:15;;;;;;;25.30;14.27;;;;;;;;;;5115023;28;20189;-68
2021/04/05 01:25:42;;;;;;;32.00;19.10;;;;;;;;;;5114217;28;20235;-67
2021/04/05 01:28:09;;;;;;;37.20;19.40;;;;;;;;;;5114401;28;20220;-66
2021/04/05 01:30:38;;;;;;;27.30;17.60;;;;;;;;;;5114102;28;20232;-66
2021/04/05 01:33:06;;;;;;;31.83;18.15;;;;;;;;;;5114064;28;20205;-66
2021/04/05 01:35:38;;;;;;;23.60;15.15;;;;;;;;;;5114374;28;20618;-66
2021/04/05 01:38:04;;;;;;;39.65;19.80;;;;;;;;;;5114595;28;20310;-66
2021/04/05 01:40:34;;;;;;;31.65;19.25;;;;;;;;;;5113959;28;20193;-66
2021/04/05 01:43:01;;;;;;;29.60;20.00;;;;;;;;;;5113959;28;20334;-66
2021/04/05 01:45:28;;;;;;;34.08;17.27;;;;;;;;;;5114255;28;20284;-66
2021/04/05 01:47:54;;;;;;;31.85;20.02;;;;;;;;;;5114223;28;20228;-67
2021/04/05 01:50:21;;;;;;;29.25;18.13;;;;;;;;;;5113846;28;20666;-67
2021/04/05 01:52:48;;;;;;;20.75;14.40;;;;;;;;;;5113799;28;20285;-67
2021/04/05 01:55:15;;;;;;;27.63;15.77;;;;;;;;;;5113716;28;20232;-68
2021/04/05 01:57:43;;;;;;;29.70;18.35;;;;;;;;;;5114214;28;20308;-67
2021/04/05 02:00:12;;;;;;;22.73;14.82;;;;;;;;;;5113778;28;20310;-67
2021/04/05 02:02:38;;;;;;;29.60;15.48;;;;;;;;;;5114032;28;20193;-67
2021/04/05 02:05:06;;;;;;;33.28;18.80;;;;;;;;;;5113664;28;20307;-67
2021/04/05 02:07:35;;;;;;;37.63;19.27;;;;;;;;;;5113745;28;20261;-68
2021/04/05 02:10:02;;;;;;;23.55;16.45;;;;;;;;;;5113725;28;20181;-67
2021/04/05 02:12:28;;;;;;;25.33;12.52;;;;;;;;;;5114738;28;20276;-68
2021/04/05 02:14:56;;;;;;;25.10;15.93;;;;;;;;;;5113909;28;20397;-67
2021/04/05 02:17:23;;;;;;;21.67;14.45;;;;;;;;;;5113890;28;20811;-68
2021/04/05 02:19:50;;;;;;;20.77;14.55;;;;;;;;;;5114346;28;20254;-68
2021/04/05 02:22:16;;;;;;;23.80;14.05;;;;;;;;;;5113519;28;20237;-67
2021/04/05 02:24:43;;;;;;;28.40;17.05;;;;;;;;;;5114396;28;20276;-67
2021/04/05 02:27:10;;;;;;;33.42;16.80;;;;;;;;;;5114482;28;20232;-68
2021/04/05 02:29:37;;;;;;;27.42;14.25;;;;;;;;;;5113466;28;20240;-67
2021/04/05 02:32:05;;;;;;;23.50;13.55;;;;;;;;;;5114946;28;20276;-68
2021/04/05 02:34:32;;;;;;;30.23;16.02;;;;;;;;;;5117825;28;20603;-67
2021/04/05 02:36:59;;;;;;;22.77;13.95;;;;;;;;;;5117312;28;20213;-67
2021/04/05 02:39:26;;;;;;;24.38;14.43;;;;;;;;;;5117412;28;20722;-67
2021/04/05 02:41:53;;;;;;;23.45;12.82;;;;;;;;;;5117931;27;20718;-68
2021/04/05 02:44:19;;;;;;;25.88;12.50;;;;;;;;;;5117653;28;20613;-68
2021/04/05 02:46:47;;;;;;;33.38;17.45;;;;;;;;;;5117579;28;20296;-66
2021/04/05 02:49:16;;;;;;;24.80;13.85;;;;;;;;;;5117504;28;20285;-67
2021/04/05 02:51:43;;;;;;;29.73;14.00;;;;;;;;;;5117134;28;20192;-67
2021/04/05 02:54:11;;;;;;;16.95;11.43;;;;;;;;;;5117422;28;20284;-67
2021/04/05 02:56:39;;;;;;;26.45;16.17;;;;;;;;;;5117334;28;20222;-67
2021/04/05 02:59:06;;;;;;;26.83;15.93;;;;;;;;;;5117185;28;20225;-67
2021/04/05 03:01:33;;;;;;;26.90;13.95;;;;;;;;;;5117318;28;20284;-68
2021/04/05 03:04:00;;;;;;;20.80;10.43;;;;;;;;;;5117421;28;20228;-68
2021/04/05 03:06:29;;;;;;;27.85;15.35;;;;;;;;;;5116887;28;20280;-68
2021/04/05 03:08:57;;;;;;;34.83;14.38;;;;;;;;;;5117330;28;20741;-68
2021/04/05 03:11:25;;;;;;;30.10;17.10;;;;;;;;;;5117502;28;20600;-67
2021/04/05 03:13:52;;;;;;;29.23;15.68;;;;;;;;;;5116703;28;20194;-68
2021/04/05 03:16:20;;;;;;;24.90;14.23;;;;;;;;;;5117324;28;20278;-67
2021/04/05 03:18:47;;;;;;;27.02;16.35;;;;;;;;;;5116557;28;20259;-68
2021/04/05 03:21:15;;;;;;;22.92;14.65;;;;;;;;;;5116613;28;20238;-67
2021/04/05 03:23:43;;;;;;;29.55;16.92;;;;;;;;;;5116613;28;20742;-66
2021/04/05 03:26:12;;;;;;;27.83;15.32;;;;;;;;;;5117038;28;20284;-69
2021/04/05 03:28:38;;;;;;;27.30;16.13;;;;;;;;;;5117027;28;20219;-68
2021/04/05 03:31:07;;;;;;;27.45;14.25;;;;;;;;;;5116411;28;20197;-69
2021/04/05 03:33:36;;;;;;;18.23;13.10;;;;;;;;;;5116668;28;20597;-69
2021/04/05 03:36:06;;;;;;;18.88;12.50;;;;;;;;;;5116647;27;20289;-70
2021/04/05 03:38:33;;;;;;;29.13;17.23;;;;;;;;;;5116893;27;20259;-68
2021/04/05 03:41:02;;;;;;;28.55;16.88;;;;;;;;;;5116254;28;20197;-68
2021/04/05 03:43:31;;;;;;;26.52;16.48;;;;;;;;;;5116014;28;20224;-69
2021/04/05 03:45:59;;;;;;;25.70;14.88;;;;;;;;;;5116658;28;20289;-68
2021/04/05 03:48:29;;;;;;;27.75;17.13;;;;;;;;;;5116213;28;20661;-67
2021/04/05 03:51:01;;;;;;;25.38;14.75;;;;;;;;;;5116734;28;20197;-67
2021/04/05 03:53:32;;;;;;;25.75;14.18;;;;;;;;;;5116632;28;20193;-68
2021/04/05 03:56:00;;;;;;;29.73;18.63;;;;;;;;;;5116594;28;20187;-68
2021/04/05 03:58:31;;;;;;;23.15;15.38;;;;;;;;;;5116395;28;20304;-68
2021/04/05 04:00:58;;;;;;;25.48;16.17;;;;;;;;;;5116342;28;20272;-68
2021/04/05 04:03:33;;;;;;;29.65;14.77;;;;;;;;;;5116284;28;20205;-67
2021/04/05 04:06:02;;;;;;;30.85;16.60;;;;;;;;;;5116138;28;20234;-68
2021/04/05 04:08:34;;;;;;;31.75;18.98;;;;;;;;;;5116156;28;20231;-67
2021/04/05 04:11:06;;;;;;;28.00;15.35;;;;;;;;;;5116231;28;20189;-67
2021/04/05 04:13:36;;;;;;;29.38;17.25;;;;;;;;;;5115912;28;20205;-68
2021/04/05 04:16:03;;;;;;;41.15;20.08;;;;;;;;;;5115827;28;20220;-67
2021/04/05 04:18:30;;;;;;;33.40;17.65;;;;;;;;;;5115383;28;20304;-68
2021/04/05 04:20:57;;;;;;;27.55;16.30;;;;;;;;;;5116309;28;20231;-71
2021/04/05 04:23:24;;;;;;;29.77;16.85;;;;;;;;;;5115398;28;20703;-70
2021/04/05 04:25:53;;;;;;;27.10;15.93;;;;;;;;;;5115359;28;20226;-71
2021/04/05 04:28:20;;;;;;;28.80;18.30;;;;;;;;;;5115231;28;20197;-69
2021/04/05 04:30:54;;;;;;;38.92;18.48;;;;;;;;;;5115366;28;20242;-69
2021/04/05 04:33:20;;;;;;;32.38;17.60;;;;;;;;;;5115791;28;20608;-69
2021/04/05 04:35:47;;;;;;;29.50;17.98;;;;;;;;;;5110477;28;20278;-69
2021/04/05 04:38:14;;;;;;;28.05;15.27;;;;;;;;;;5101734;28;20304;-69
2021/04/05 04:40:41;;;;;;;28.38;17.05;;;;;;;;;;5094273;28;20605;-69
2021/04/05 04:43:08;;;;;;;29.48;18.55;;;;;;;;;;5094030;28;20255;-69
2021/04/05 04:45:35;;;;;;;23.27;15.95;;;;;;;;;;5093975;28;20556;-69
2021/04/05 04:48:03;;;;;;;24.92;17.00;;;;;;;;;;5094366;28;20236;-70
2021/04/05 04:50:30;;;;;;;42.53;19.33;;;;;;;;;;5094090;28;20280;-69
2021/04/05 04:52:57;;;;;;;24.92;17.85;;;;;;;;;;5094424;28;20226;-70
2021/04/05 04:55:25;;;;;;;34.65;18.73;;;;;;;;;;5093140;28;20682;-69
2021/04/05 04:57:55;;;;;;;35.45;18.63;;;;;;;;;;5094622;28;20216;-69
2021/04/05 05:00:23;;;;;;;35.40;18.83;;;;;;;;;;5094894;28;20710;-70
2021/04/05 05:02:50;;;;;;;29.77;19.42;;;;;;;;;;5094270;28;20281;-70
2021/04/05 05:05:18;;;;;;;32.47;18.75;;;;;;;;;;5099408;28;20194;-69
2021/04/05 05:07:45;;;;;;;32.22;19.30;;;;;;;;;;5114464;28;20393;-69
2021/04/05 05:10:13;;;;;;;32.20;16.35;;;;;;;;;;5114769;28;20256;-69
2021/04/05 05:12:40;;;;;;;34.35;20.75;;;;;;;;;;5114669;28;20245;-69
2021/04/05 05:15:08;;;;;;;28.02;17.20;;;;;;;;;;5113916;28;20228;-70
2021/04/05 05:17:35;;;;;;;36.08;16.05;;;;;;;;;;5114070;28;20304;-69
2021/04/05 05:20:02;;;;;;;31.52;19.88;;;;;;;;;;5114149;28;20189;-70
2021/04/05 05:22:30;;;;;;;35.17;20.27;;;;;;;;;;5114234;28;20292;-70
2021/04/05 05:24:57;;;;;;;38.60;19.30;;;;;;;;;;5106650;28;20229;-70
2021/04/05 05:27:25;;;;;;;22.85;13.48;;;;;;;;;;5093998;28;20260;-70
2021/04/05 05:29:52;;;;;;;31.77;17.33;;;;;;;;;;5109323;28;20202;-70
2021/04/05 05:32:20;;;;;;;43.83;22.05;;;;;;;;;;5114378;28;20193;-69
2021/04/05 05:34:47;;;;;;;34.15;21.45;;;;;;;;;;5114421;28;20193;-69
2021/04/05 05:37:14;;;;;;;28.77;18.42;;;;;;;;;;5114320;28;20310;-68
2021/04/05 05:39:43;;;;;;;29.80;16.63;;;;;;;;;;5113984;28;20200;-70
2021/04/05 05:42:12;;;;;;;33.42;20.08;;;;;;;;;;5113974;28;20193;-69
2021/04/05 05:44:45;;;;;;;37.75;20.85;;;;;;;;;;5114245;28;20280;-70
2021/04/05 05:47:13;;;;;;;36.45;20.80;;;;;;;;;;5114778;28;20264;-70
2021/04/05 05:49:48;;;;;;;38.63;20.75;;;;;;;;;;5113849;28;20200;-70
2021/04/05 05:52:28;;;;;;;41.97;21.40;;;;;;;;;;5114900;28;20188;-70
2021/04/05 05:55:06;;;;;;;37.28;21.85;;;;;;;;;;5113980;28;20189;-69
2021/04/05 05:57:37;;;;;;;46.75;22.17;;;;;;;;;;5113771;28;20205;-70
2021/04/05 06:00:06;;;;;;;30.20;18.73;;;;;;;;;;5114450;28;20181;-71
2021/04/05 06:02:48;;;;;;;29.25;15.70;;;;;;;;;;5114124;28;20235;-72
2021/04/05 06:05:33;;;;;;;30.40;19.05;;;;;;;;;;5114596;28;20203;-70
2021/04/05 06:08:08;;;;;;;45.58;20.58;;;;;;;;;;5118338;28;20304;-69
2021/04/05 06:10:40;;;;;;;30.58;19.08;;;;;;;;;;5118415;28;20586;-67
2021/04/05 06:13:11;;;;;;;41.05;23.88;;;;;;;;;;5118614;27;20231;-67
2021/04/05 06:15:48;;;;;;;32.20;20.80;;;;;;;;;;5117984;28;20225;-66
2021/04/05 06:18:21;;;;;;;36.15;17.67;;;;;;;;;;5118174;28;20296;-65
2021/04/05 06:20:50;;;;;;;41.53;21.15;;;;;;;;;;5118164;28;20227;-71
2021/04/05 06:23:20;;;;;;;31.55;20.25;;;;;;;;;;5117469;28;20194;-66
2021/04/05 06:26:03;;;;;;;21.20;14.82;;;;;;;;;;5117745;28;20225;-65
2021/04/05 06:28:35;;;;;;;31.65;18.20;;;;;;;;;;5117679;28;20187;-65
2021/04/05 06:31:08;;;;;;;51.17;23.60;;;;;;;;;;5117709;28;20181;-65
2021/04/05 06:33:35;;;;;;;33.17;21.30;;;;;;;;;;5117581;28;20627;-66
2021/04/05 06:36:13;;;;;;;49.55;24.05;;;;;;;;;;5117789;28;20620;-66
2021/04/05 06:38:42;;;;;;;37.33;20.95;;;;;;;;;;5117937;28;20641;-65
2021/04/05 06:41:32;;;;;;;33.20;21.60;;;;;;;;;;5117645;28;20197;-65
2021/04/05 06:44:23;;;;;;;27.02;17.25;;;;;;;;;;5117251;27;20229;-64
2021/04/05 06:47:12;;;;;;;21.92;11.75;;;;;;;;;;5117663;28;20186;-62
2021/04/05 06:49:48;;;;;;;9.75;6.18;;;;;;;;;;5117813;28;20213;-65
2021/04/05 06:52:21;;;;;;;7.57;4.18;;;;;;;;;;5118059;28;20599;-65
2021/04/05 06:55:03;;;;;;;9.25;4.78;;;;;;;;;;5117428;28;20636;-63
2021/04/05 06:57:36;;;;;;;4.13;2.20;;;;;;;;;;5118416;28;20202;-65
2021/04/05 07:00:06;;;;;;;3.95;2.30;;;;;;;;;;5118777;28;20186;-63
2021/04/05 07:03:00;;;;;;;5.75;2.20;;;;;;;;;;5119217;28;20220;-62
2021/04/05 07:05:46;;;;;;;2.55;1.75;;;;;;;;;;5119324;28;20654;-65
2021/04/05 07:08:16;;;;;;;2.30;2.10;;;;;;;;;;5118869;28;20241;-64
2021/04/05 07:10:46;;;;;;;1.90;1.67;;;;;;;;;;5119475;27;20208;-63
2021/04/05 07:13:20;;;;;;;6.07;2.50;;;;;;;;;;5119923;28;20302;-64
2021/04/05 07:15:49;;;;;;;3.30;2.03;;;;;;;;;;5118299;28;20221;-65
2021/04/05 07:18:34;;;;;;;3.70;2.00;;;;;;;;;;5117575;28;20311;-64
2021/04/05 07:21:15;;;;;;;1.80;1.70;;;;;;;;;;5117492;28;20323;-64
2021/04/05 07:23:48;;;;;;;3.53;2.28;;;;;;;;;;5117374;28;20271;-63
2021/04/05 07:26:19;;;;;;;2.65;1.90;;;;;;;;;;5118026;28;20220;-64
2021/04/05 07:28:53;;;;;;;2.33;1.73;;;;;;;;;;5118558;28;20251;-64
2021/04/05 07:31:25;;;;;;;4.97;1.98;;;;;;;;;;5118925;28;20237;-64
2021/04/05 07:33:53;;;;;;;2.05;1.75;;;;;;;;;;5119124;28;20270;-64
2021/04/05 07:36:26;;;;;;;4.03;1.60;;;;;;;;;;5118170;28;20225;-63
2021/04/05 07:38:56;;;;;;;6.88;2.92;;;;;;;;;;5119783;28;20603;-64
2021/04/05 07:41:27;;;;;;;7.97;2.00;;;;;;;;;;5118297;28;20224;-64
2021/04/05 07:44:12;;;;;;;5.75;2.20;;;;;;;;;;5117510;28;20287;-64
2021/04/05 07:46:42;;;;;;;4.03;2.20;;;;;;;;;;5116637;28;20186;-64
2021/04/05 07:49:11;;;;;;;5.22;2.05;;;;;;;;;;5116319;28;20186;-64
2021/04/05 07:51:44;;;;;;;1.77;1.65;;;;;;;;;;5116676;28;20558;-64
2021/04/05 07:54:13;;;;;;;3.90;1.70;;;;;;;;;;5116643;28;20220;-64
2021/04/05 07:56:42;;;;;;;5.47;2.20;;;;;;;;;;5115966;28;20284;-63
2021/04/05 07:59:14;;;;;;;2.35;2.15;;;;;;;;;;5116197;28;20209;-64
2021/04/05 08:01:44;;;;;;;3.05;1.70;;;;;;;;;;5116040;28;20587;-64
2021/04/05 08:04:16;;;;;;;2.78;1.90;;;;;;;;;;5116218;28;20225;-64
2021/04/05 08:06:48;;;;;;;2.65;2.05;;;;;;;;;;5116128;28;20212;-64
2021/04/05 08:09:15;;;;;;;2.35;2.15;;;;;;;;;;5116304;28;20271;-64
2021/04/05 08:12:00;;;;;;;1.50;1.40;;;;;;;;;;5116522;28;20279;-64
2021/04/05 08:14:32;;;;;;;2.75;1.20;;;;;;;;;;5115524;28;20228;-63
2021/04/05 08:17:03;;;;;;;1.25;1.15;;;;;;;;;;5115791;28;20280;-63
2021/04/05 08:19:34;;;;;;;2.47;1.40;;;;;;;;;;5115942;28;20620;-62
2021/04/05 08:22:04;;;;;;;1.20;1.10;;;;;;;;;;5115657;28;20280;-64
2021/04/05 08:24:37;;;;;;;2.85;1.60;;;;;;;;;;5115552;28;20630;-63
2021/04/05 08:27:08;;;;;;;2.45;1.20;;;;;;;;;;5115732;28;20268;-64
2021/04/05 08:29:40;;;;;;;1.20;1.20;;;;;;;;;;5115574;28;20197;-64
2021/04/05 08:32:11;;;;;;;2.92;1.20;;;;;;;;;;5115974;28;20228;-64
2021/04/05 08:34:52;;;;;;;3.63;1.42;;;;;;;;;;5115195;28;20177;-64
2021/04/05 08:37:22;;;;;;;8.55;2.05;;;;;;;;;;5113872;28;20279;-64
2021/04/05 08:39:54;;;;;;;3.65;2.00;;;;;;;;;;5115051;28;20672;-64
2021/04/05 08:42:24;;;;;;;4.35;2.25;;;;;;;;;;5116071;27;20268;-63
2021/04/05 08:44:52;;;;;;;10.07;2.97;;;;;;;;;;5116035;28;20197;-64
2021/04/05 08:47:23;;;;;;;3.30;2.17;;;;;;;;;;5114988;28;20287;-63
2021/04/05 08:49:50;;;;;;;8.50;3.13;;;;;;;;;;5115594;28;20197;-64
2021/04/05 08:52:20;;;;;;;7.25;2.42;;;;;;;;;;5115332;28;20283;-65
2021/04/05 08:54:49;;;;;;;13.65;2.53;;;;;;;;;;5115821;28;20591;-64
2021/04/05 08:57:18;;;;;;;5.25;2.17;;;;;;;;;;5114982;28;20204;-64
2021/04/05 08:59:48;;;;;;;3.55;2.00;;;;;;;;;;5114863;28;20197;-64
2021/04/05 09:02:20;;;;;;;2.05;1.88;;;;;;;;;;5114605;28;20235;-64
2021/04/05 09:04:47;;;;;;;3.10;2.03;;;;;;;;;;5114542;28;20177;-65
2021/04/05 09:07:19;;;;;;;8.63;2.83;;;;;;;;;;5114681;28;20596;-63
2021/04/05 09:09:47;;;;;;;4.10;1.90;;;;;;;;;;5114902;28;20311;-64
2021/04/05 09:12:14;;;;;;;6.32;3.00;;;;;;;;;;5114388;28;20646;-65
2021/04/05 09:14:53;;;;;;;9.77;2.85;;;;;;;;;;5114236;27;20279;-64
2021/04/05 09:17:33;;;;;;;9.38;2.58;;;;;;;;;;5115416;28;20511;-64
2021/04/05 09:20:17;;;;;;;6.50;2.60;;;;;;;;;;5115222;28;20185;-64
2021/04/05 09:22:55;;;;;;;5.55;1.95;;;;;;;;;;5114283;28;20181;-64
2021/04/05 09:25:27;;;;;;;4.85;1.85;;;;;;;;;;5115220;28;20264;-65
2021/04/05 09:28:03;;;;;;;1.73;1.63;;;;;;;;;;5114239;28;20268;-64
2021/04/05 09:30:53;;;;;;;8.05;2.22;;;;;;;;;;5114549;28;20271;-64
2021/04/05 09:33:46;;;;;;;4.22;2.17;;;;;;;;;;5114925;28;20290;-65
2021/04/05 09:36:28;;;;;;;3.90;2.53;;;;;;;;;;5078027;28;20678;-67
2021/04/05 09:39:09;;;;;;;7.45;2.30;;;;;;;;;;5080328;28;20311;-65
2021/04/05 09:41:51;;;;;;;6.53;2.30;;;;;;;;;;5113596;28;20277;-64
2021/04/05 09:44:30;;;;;;;5.97;2.53;;;;;;;;;;5101592;28;20193;-66
2021/04/05 09:47:11;;;;;;;7.20;2.08;;;;;;;;;;5113867;28;20280;-65
2021/04/05 09:49:44;;;;;;;2.78;2.03;;;;;;;;;;5114123;28;20192;-65
2021/04/05 09:52:17;;;;;;;5.93;1.92;;;;;;;;;;5113840;28;20268;-65
2021/04/05 09:54:49;;;;;;;8.65;2.72;;;;;;;;;;5112385;28;20655;-64
2021/04/05 09:57:18;;;;;;;4.13;2.20;;;;;;;;;;5102869;28;20277;-65
2021/04/05 09:59:47;;;;;;;4.28;3.03;;;;;;;;;;5114058;28;20280;-64
2021/04/05 10:02:15;;;;;;;4.32;1.98;;;;;;;;;;5113977;28;20189;-63
2021/04/05 10:04:42;;;;;;;3.33;1.90;;;;;;;;;;5113998;28;20283;-64
2021/04/05 10:07:11;;;;;;;8.68;2.47;;;;;;;;;;5113866;28;20619;-63
2021/04/05 10:09:38;;;;;;;2.67;1.90;;;;;;;;;;5113614;28;20276;-63
2021/04/05 10:12:06;;;;;;;4.82;1.85;;;;;;;;;;5114096;28;20759;-64
2021/04/05 10:14:34;;;;;;;1.30;1.20;;;;;;;;;;5113591;28;20201;-65
2021/04/05 10:17:02;;;;;;;1.40;1.30;;;;;;;;;;5113949;28;20619;-63
2021/04/05 10:19:31;;;;;;;1.42;1.20;;;;;;;;;;5113731;28;20299;-64
2021/04/05 10:22:01;;;;;;;1.50;1.38;;;;;;;;;;5113591;28;20224;-63
2021/04/05 10:24:28;;;;;;;1.30;1.05;;;;;;;;;;5113796;28;20193;-64
2021/04/05 10:26:57;;;;;;;1.50;1.40;;;;;;;;;;5113568;28;20288;-65
2021/04/05 10:29:26;;;;;;;2.08;1.98;;;;;;;;;;5113670;28;20196;-64
2021/04/05 10:31:53;;;;;;;1.65;1.27;;;;;;;;;;5113245;28;20284;-65
2021/04/05 10:34:23;;;;;;;5.00;1.40;;;;;;;;;;5113902;28;20273;-65
2021/04/05 10:36:52;;;;;;;1.92;1.75;;;;;;;;;;5113586;28;20193;-63
2021/04/05 10:39:20;;;;;;;3.17;1.38;;;;;;;;;;5113946;28;20303;-64
2021/04/05 10:41:49;;;;;;;3.38;1.80;;;;;;;;;;5113543;28;20698;-63
2021/04/05 10:44:17;;;;;;;1.42;1.33;;;;;;;;;;5113367;28;20288;-64
2021/04/05 10:46:47;;;;;;;4.10;1.48;;;;;;;;;;5113963;28;20663;-63
2021/04/05 10:49:15;;;;;;;2.33;1.45;;;;;;;;;;5113368;28;20226;-64
2021/04/05 10:51:45;;;;;;;1.60;1.48;;;;;;;;;;5113782;28;20653;-64
2021/04/05 10:54:15;;;;;;;2.55;1.75;;;;;;;;;;5115628;28;20717;-63
2021/04/05 10:56:47;;;;;;;3.58;1.77;;;;;;;;;;5116921;28;20197;-64
2021/04/05 10:59:17;;;;;;;3.20;1.58;;;;;;;;;;5117069;28;20254;-63
2021/04/05 11:01:46;;;;;;;2.80;1.48;;;;;;;;;;5117322;27;20224;-63
2021/04/05 11:04:14;;;;;;;5.93;2.55;;;;;;;;;;5116913;28;20280;-66
2021/04/05 11:06:41;;;;;;;4.03;2.00;;;;;;;;;;5117135;28;20284;-64
2021/04/05 11:09:10;;;;;;;2.10;1.90;;;;;;;;;;5117486;28;20321;-64
2021/04/05 11:11:40;;;;;;;2.33;1.58;;;;;;;;;;5117011;27;20220;-65
2021/04/05 11:14:09;;;;;;;2.58;1.75;;;;;;;;;;5117841;28;20266;-63
2021/04/05 11:16:36;;;;;;;1.73;1.63;;;;;;;;;;5116703;28;20233;-65
2021/04/05 11:19:07;;;;;;;2.53;1.45;;;;;;;;;;5116536;28;20213;-64
2021/04/05 11:21:36;;;;;;;8.45;1.92;;;;;;;;;;5116958;28;20189;-64
2021/04/05 11:24:04;;;;;;;4.72;2.20;;;;;;;;;;5116584;28;20204;-64
2021/04/05 11:26:32;;;;;;;2.38;1.65;;;;;;;;;;5116654;28;20611;-66
2021/04/05 11:29:03;;;;;;;4.35;1.92;;;;;;;;;;5116786;28;20292;-65
2021/04/05 11:31:35;;;;;;;3.00;1.83;;;;;;;;;;5116346;28;20188;-65
2021/04/05 11:34:02;;;;;;;4.97;1.98;;;;;;;;;;5116491;28;20514;-71
2021/04/05 11:36:36;;;;;;;5.68;2.00;;;;;;;;;;5116567;28;20225;-71
2021/04/05 11:39:06;;;;;;;2.90;2.63;;;;;;;;;;5116009;27;20208;-66
2021/04/05 11:41:34;;;;;;;1.60;1.45;;;;;;;;;;5116430;28;20229;-66
2021/04/05 11:44:03;;;;;;;4.53;2.03;;;;;;;;;;5116510;28;20284;-66
2021/04/05 11:46:30;;;;;;;3.58;1.90;;;;;;;;;;5116573;28;20666;-66
2021/04/05 11:49:02;;;;;;;4.88;2.08;;;;;;;;;;5116414;28;20292;-66
2021/04/05 11:51:29;;;;;;;3.90;1.60;;;;;;;;;;5116658;28;20220;-65
2021/04/05 11:53:59;;;;;;;8.98;2.50;;;;;;;;;;5116037;28;20236;-66
2021/04/05 11:56:27;;;;;;;8.07;2.75;;;;;;;;;;5115929;28;20198;-65
2021/04/05 11:58:59;;;;;;;4.57;1.77;;;;;;;;;;5116100;28;20258;-68
2021/04/05 12:01:37;;;;;;;2.38;1.42;;;;;;;;;;5116303;28;20185;-65
2021/04/05 12:04:09;;;;;;;2.50;1.40;;;;;;;;;;5116179;28;20192;-66
2021/04/05 12:06:38;;;;;;;5.95;1.40;;;;;;;;;;5116343;28;20643;-66
2021/04/05 12:09:08;;;;;;;4.93;2.00;;;;;;;;;;5115481;28;20311;-66
2021/04/05 12:11:42;;;;;;;2.15;1.20;;;;;;;;;;5115983;28;20204;-66
2021/04/05 12:14:11;;;;;;;3.85;1.52;;;;;;;;;;5115849;28;20235;-66
2021/04/05 12:16:40;;;;;;;3.50;1.77;;;;;;;;;;5115787;28;20726;-67
2021/04/05 12:19:07;;;;;;;4.38;1.48;;;;;;;;;;5115437;28;20213;-65
2021/04/05 12:21:35;;;;;;;3.08;1.40;;;;;;;;;;5116488;28;20276;-67
2021/04/05 12:24:03;;;;;;;3.63;1.65;;;;;;;;;;5115347;28;20231;-66
2021/04/05 12:26:32;;;;;;;2.65;1.50;;;;;;;;;;5115073;28;20280;-66
2021/04/05 12:29:02;;;;;;;7.25;1.60;;;;;;;;;;5115318;28;20673;-67
2021/04/05 12:31:30;;;;;;;1.83;1.73;;;;;;;;;;5115243;28;20180;-66
2021/04/05 12:33:59;;;;;;;2.45;1.30;;;;;;;;;;5115189;28;20288;-66
2021/04/05 12:36:31;;;;;;;4.47;1.60;;;;;;;;;;5115126;28;20200;-66
2021/04/05 12:39:00;;;;;;;7.85;2.50;;;;;;;;;;5116003;28;20307;-65
2021/04/05 12:41:32;;;;;;;5.82;2.05;;;;;;;;;;5114981;28;20249;-66
2021/04/05 12:44:00;;;;;;;7.72;2.40;;;;;;;;;;5114929;27;20242;-66
2021/04/05 12:46:27;;;;;;;1.42;1.33;;;;;;;;;;5115176;28;20227;-67
2021/04/05 12:48:57;;;;;;;2.83;1.67;;;;;;;;;;5114739;28;20696;-65
2021/04/05 12:51:24;;;;;;;4.22;1.98;;;;;;;;;;5115421;28;20283;-65
2021/04/05 12:53:51;;;;;;;5.30;2.63;;;;;;;;;;5114722;28;20292;-66
2021/04/05 12:56:20;;;;;;;2.72;1.20;;;;;;;;;;5115030;28;20200;-65
2021/04/05 12:58:53;;;;;;;1.80;1.60;;;;;;;;;;5114842;28;20261;-65
2021/04/05 13:01:25;;;;;;;1.67;1.45;;;;;;;;;;5115357;28;20181;-66
2021/04/05 13:03:53;;;;;;;1.40;1.30;;;;;;;;;;5115784;28;20181;-65
2021/04/05 13:06:23;;;;;;;2.60;1.33;;;;;;;;;;5114920;28;20228;-66
2021/04/05 13:08:52;;;;;;;5.05;1.23;;;;;;;;;;5114728;28;20235;-65
2021/04/05 13:11:21;;;;;;;1.20;1.10;;;;;;;;;;5114453;28;20197;-66
2021/04/05 13:13:49;;;;;;;2.35;1.83;;;;;;;;;;5114323;28;20284;-66
2021/04/05 13:16:21;;;;;;;6.72;1.65;;;;;;;;;;5114094;28;20236;-65
2021/04/05 13:18:51;;;;;;;3.92;1.30;;;;;;;;;;5114602;28;20296;-66
2021/04/05 13:21:19;;;;;;;1.35;1.10;;;;;;;;;;5114268;28;20268;-66
2021/04/05 13:23:48;;;;;;;1.40;1.30;;;;;;;;;;5114498;28;20250;-66
2021/04/05 13:26:18;;;;;;;1.45;1.35;;;;;;;;;;5114342;28;20277;-66
2021/04/05 13:28:50;;;;;;;2.42;1.23;;;;;;;;;;5114330;28;20339;-66
2021/04/05 13:31:17;;;;;;;3.22;1.50;;;;;;;;;;5114785;28;20272;-68
2021/04/05 13:33:44;;;;;;;4.40;1.40;;;;;;;;;;5114356;28;20292;-66
2021/04/05 13:36:13;;;;;;;1.48;1.38;;;;;;;;;;5114171;28;20200;-64
2021/04/05 13:38:41;;;;;;;1.20;1.20;;;;;;;;;;5113711;28;20303;-67
2021/04/05 13:41:10;;;;;;;1.90;1.10;;;;;;;;;;5114357;28;20197;-65
2021/04/05 13:43:38;;;;;;;1.90;1.20;;;;;;;;;;5114266;28;20615;-66
2021/04/05 13:46:08;;;;;;;1.50;1.40;;;;;;;;;;5114556;28;20202;-66
2021/04/05 13:48:36;;;;;;;1.65;1.55;;;;;;;;;;5114127;28;20197;-68
2021/04/05 13:51:04;;;;;;;3.08;1.92;;;;;;;;;;5114302;28;20196;-66
2021/04/05 13:53:32;;;;;;;1.90;1.20;;;;;;;;;;5114295;28;20281;-65
2021/04/05 13:56:00;;;;;;;4.07;1.98;;;;;;;;;;5114029;28;20272;-67
2021/04/05 13:58:31;;;;;;;1.40;1.30;;;;;;;;;;5114042;28;20295;-67
2021/04/05 14:01:01;;;;;;;1.90;1.20;;;;;;;;;;5114068;28;20230;-67
2021/04/05 14:03:31;;;;;;;1.00;1.00;;;;;;;;;;5113865;28;20621;-67
2021/04/05 14:05:59;;;;;;;1.45;1.10;;;;;;;;;;5113933;28;20279;-66
2021/04/05 14:08:26;;;;;;;3.08;1.25;;;;;;;;;;5114122;28;20420;-67
2021/04/05 14:10:55;;;;;;;1.23;1.13;;;;;;;;;;5113820;28;20199;-70
2021/04/05 14:13:28;;;;;;;2.35;1.20;;;;;;;;;;5113952;28;20220;-67
2021/04/05 14:15:54;;;;;;;1.20;1.10;;;;;;;;;;5113913;28;20185;-64
2021/04/05 14:18:23;;;;;;;1.20;1.10;;;;;;;;;;5111943;28;20260;-66
2021/04/05 14:20:50;;;;;;;1.38;1.13;;;;;;;;;;5102364;28;20266;-66
2021/04/05 14:23:20;;;;;;;2.45;1.20;;;;;;;;;;5093415;28;20201;-67
2021/04/05 14:25:50;;;;;;;1.20;1.20;;;;;;;;;;5093530;28;20248;-65
2021/04/05 14:28:21;;;;;;;1.48;1.38;;;;;;;;;;5096072;28;20244;-66
2021/04/05 14:30:56;;;;;;;1.42;1.30;;;;;;;;;;5096923;28;20627;-69
2021/04/05 14:33:25;;;;;;;1.60;1.50;;;;;;;;;;5097619;28;20204;-66
2021/04/05 14:35:59;;;;;;;1.88;1.20;;;;;;;;;;5097034;28;20278;-65
2021/04/05 14:38:27;;;;;;;2.00;1.30;;;;;;;;;;5097457;28;20749;-66
2021/04/05 14:40:56;;;;;;;3.42;1.25;;;;;;;;;;5096972;28;20233;-66
2021/04/05 14:43:32;;;;;;;4.07;1.30;;;;;;;;;;5096916;28;20240;-67
2021/04/05 14:46:02;;;;;;;2.35;1.20;;;;;;;;;;5096897;28;20181;-67
2021/04/05 14:48:29;;;;;;;1.20;1.10;;;;;;;;;;5099749;28;20246;-67